Time;durP1;ratioP1;P1;durP2;ratioP2;P2;SDS_P1;SDS_P2;PMS_P1;PMS_P2;Temp;Humidity;BMP_temperature;BMP_pressure;BME280_temperature;BME280_humidity;BME280_pressure;Samples;Min_cycle;Max_cycle;Signal;HPM_P1;HPM_P2
2023/06/24 00:00:52;;;;;;;2.22;1.60;;;23.70;94.70;;;;;;5117262;27;45382;-58
2023/06/24 00:03:18;;;;;;;2.40;1.50;;;23.60;94.60;;;;;;5118534;27;45652;-58
2023/06/24 00:05:49;;;;;;;2.05;1.58;;;23.60;94.50;;;;;;5119167;27;46982;-57
2023/06/24 00:08:18;;;;;;;2.70;1.80;;;23.60;94.70;;;;;;5120846;27;45381;-58
2023/06/24 00:10:45;;;;;;;2.03;1.60;;;23.60;94.60;;;;;;5120122;27;45210;-58
2023/06/24 00:13:12;;;;;;;2.58;1.85;;;23.70;94.70;;;;;;5116163;27;45319;-58
2023/06/24 00:15:42;;;;;;;3.00;1.75;;;23.60;94.70;;;;;;5116279;27;46976;-58
2023/06/24 00:18:09;;;;;;;2.47;1.70;;;23.60;94.80;;;;;;5118850;27;45241;-58
2023/06/24 00:20:36;;;;;;;2.00;1.80;;;23.60;94.90;;;;;;5116379;27;45313;-58
2023/06/24 00:23:03;;;;;;;2.00;1.70;;;23.60;94.90;;;;;;5109899;27;45506;-58
2023/06/24 00:25:30;;;;;;;2.42;1.80;;;23.70;95.00;;;;;;5123253;27;46286;-57
2023/06/24 00:27:58;;;;;;;1.98;1.77;;;23.60;95.10;;;;;;5117374;27;45404;-58
2023/06/24 00:30:26;;;;;;;1.95;1.45;;;23.60;95.10;;;;;;5108676;27;45537;-57
2023/06/24 00:32:55;;;;;;;1.90;1.50;;;23.70;95.30;;;;;;5113436;27;45538;-57
2023/06/24 00:35:21;;;;;;;1.55;1.45;;;23.70;95.30;;;;;;5120600;27;48050;-58
2023/06/24 00:37:49;;;;;;;3.00;1.50;;;23.70;95.40;;;;;;5119240;27;45438;-58
2023/06/24 00:40:16;;;;;;;2.10;1.70;;;23.70;95.40;;;;;;5111737;27;45404;-58
2023/06/24 00:42:46;;;;;;;2.10;1.90;;;23.70;95.40;;;;;;5117713;27;45386;-58
2023/06/24 00:45:13;;;;;;;2.38;1.67;;;23.60;95.30;;;;;;5121767;27;48089;-57
2023/06/24 00:47:40;;;;;;;2.20;1.70;;;23.70;95.40;;;;;;5122555;27;45269;-58
2023/06/24 00:50:11;;;;;;;2.63;1.70;;;23.70;95.40;;;;;;5122200;27;45250;-58
2023/06/24 00:52:42;;;;;;;2.38;1.80;;;23.70;95.40;;;;;;5123289;27;45508;-58
2023/06/24 00:55:09;;;;;;;2.05;1.75;;;23.70;95.40;;;;;;5121372;27;47942;-57
2023/06/24 00:57:38;;;;;;;2.40;1.90;;;23.70;95.40;;;;;;5123700;27;45309;-58
2023/06/24 01:00:09;;;;;;;2.10;1.90;;;23.70;95.40;;;;;;5123923;27;45388;-58
2023/06/24 01:02:37;;;;;;;2.75;1.80;;;23.60;95.30;;;;;;5124029;27;45450;-58
2023/06/24 01:05:05;;;;;;;3.30;1.70;;;23.70;95.40;;;;;;5111098;27;47527;-58
2023/06/24 01:07:35;;;;;;;2.90;1.95;;;23.70;95.40;;;;;;5123939;27;45410;-58
2023/06/24 01:10:05;;;;;;;2.45;1.70;;;23.70;95.40;;;;;;5123663;27;45393;-58
2023/06/24 01:12:33;;;;;;;2.08;1.63;;;23.70;95.40;;;;;;5122800;27;45589;-58
2023/06/24 01:15:00;;;;;;;2.65;1.77;;;23.70;95.40;;;;;;5118053;27;45474;-58
2023/06/24 01:17:35;;;;;;;1.73;1.63;;;23.70;95.40;;;;;;5123730;27;45493;-58
2023/06/24 01:20:07;;;;;;;2.42;2.10;;;23.70;95.40;;;;;;5117867;27;45301;-58
2023/06/24 01:23:19;;;;;;;2.03;1.83;;;23.70;95.50;;;;;;5123737;27;45505;-58
2023/06/24 01:26:01;;;;;;;1.70;1.60;;;23.60;95.50;;;;;;5111815;27;46614;-58
2023/06/24 01:28:44;;;;;;;2.97;1.73;;;23.60;95.50;;;;;;5122281;27;45895;-57
2023/06/24 01:31:35;;;;;;;2.95;1.90;;;23.60;95.60;;;;;;5121773;27;45274;-58
2023/06/24 01:34:07;;;;;;;2.92;1.70;;;23.60;95.70;;;;;;5115745;27;45250;-57
2023/06/24 01:36:37;;;;;;;2.22;1.65;;;23.60;95.70;;;;;;5122494;27;47421;-58
2023/06/24 01:39:07;;;;;;;2.10;1.90;;;23.60;95.70;;;;;;5122350;27;45446;-57
2023/06/24 01:41:41;;;;;;;1.90;1.55;;;23.60;95.70;;;;;;5123116;27;45532;-58
2023/06/24 01:44:10;;;;;;;1.70;1.42;;;23.60;95.80;;;;;;5123658;27;45487;-58
2023/06/24 01:46:38;;;;;;;2.15;1.70;;;23.60;95.80;;;;;;5123596;27;46511;-58
2023/06/24 01:49:08;;;;;;;2.63;1.73;;;23.60;95.80;;;;;;5122990;27;45406;-57
2023/06/24 01:51:37;;;;;;;1.90;1.80;;;23.60;95.80;;;;;;5121665;27;45299;-58
2023/06/24 01:54:06;;;;;;;2.78;1.90;;;23.60;95.80;;;;;;5124224;27;45293;-58
2023/06/24 01:56:36;;;;;;;2.22;1.55;;;23.60;95.70;;;;;;5122006;27;47172;-58
2023/06/24 01:59:04;;;;;;;2.00;1.60;;;23.60;95.70;;;;;;5122640;27;46267;-58
2023/06/24 02:01:34;;;;;;;1.65;1.55;;;23.60;95.70;;;;;;5124000;27;45414;-58
2023/06/24 02:04:04;;;;;;;2.92;1.65;;;23.70;95.70;;;;;;5122470;27;45433;-57
2023/06/24 02:06:32;;;;;;;2.72;1.90;;;23.60;95.70;;;;;;5121641;27;46587;-57
2023/06/24 02:09:01;;;;;;;2.38;1.63;;;23.60;95.70;;;;;;5122714;27;45275;-58
2023/06/24 02:11:31;;;;;;;1.98;1.73;;;23.70;95.70;;;;;;5122827;27;45496;-58
2023/06/24 02:14:00;;;;;;;2.30;1.75;;;23.70;95.80;;;;;;5120843;27;45427;-58
2023/06/24 02:16:28;;;;;;;2.35;1.83;;;23.70;95.80;;;;;;5121799;27;46378;-57
2023/06/24 02:18:56;;;;;;;2.60;1.75;;;23.60;95.70;;;;;;5126085;27;45350;-58
2023/06/24 02:21:25;;;;;;;2.08;1.80;;;23.60;95.80;;;;;;5123858;27;45417;-57
2023/06/24 02:23:53;;;;;;;1.88;1.60;;;23.60;95.80;;;;;;5120302;27;45453;-58
2023/06/24 02:26:21;;;;;;;2.03;1.70;;;23.60;95.80;;;;;;5126277;27;47066;-57
2023/06/24 02:28:49;;;;;;;3.40;1.83;;;23.60;95.80;;;;;;5125254;27;45623;-57
2023/06/24 02:31:18;;;;;;;1.83;1.67;;;23.60;95.80;;;;;;5125747;27;45505;-58
2023/06/24 02:33:45;;;;;;;2.03;1.80;;;23.60;95.80;;;;;;5117033;27;45305;-58
2023/06/24 02:36:12;;;;;;;3.83;1.90;;;23.60;95.90;;;;;;5126802;27;46189;-57
2023/06/24 02:38:40;;;;;;;6.63;2.08;;;23.60;95.90;;;;;;5125652;27;45402;-57
2023/06/24 02:41:06;;;;;;;3.78;1.77;;;23.60;95.90;;;;;;5124709;27;45204;-57
2023/06/24 02:43:35;;;;;;;2.08;1.70;;;23.60;95.90;;;;;;5126471;27;45569;-57
2023/06/24 02:46:03;;;;;;;3.35;1.88;;;23.60;95.90;;;;;;5126627;27;47246;-58
2023/06/24 02:48:31;;;;;;;1.92;1.67;;;23.60;95.90;;;;;;5125795;27;45373;-57
2023/06/24 02:50:59;;;;;;;1.92;1.50;;;23.60;95.90;;;;;;5126565;27;45492;-58
2023/06/24 02:53:27;;;;;;;2.67;1.95;;;23.60;96.30;;;;;;5125471;27;45553;-57
2023/06/24 02:55:56;;;;;;;3.45;1.90;;;23.60;95.90;;;;;;5125185;27;47788;-57
2023/06/24 02:58:23;;;;;;;1.85;1.55;;;23.60;95.90;;;;;;5125059;27;45540;-58
2023/06/24 03:00:50;;;;;;;3.53;1.80;;;23.50;95.80;;;;;;5126134;27;45297;-58
2023/06/24 03:03:18;;;;;;;2.45;1.77;;;23.60;95.80;;;;;;5126530;27;45436;-58
2023/06/24 03:05:48;;;;;;;2.10;1.73;;;23.60;95.80;;;;;;5118103;27;46621;-58
2023/06/24 03:08:15;;;;;;;3.50;1.77;;;23.60;95.70;;;;;;5123769;27;45333;-58
2023/06/24 03:10:42;;;;;;;1.73;1.55;;;23.60;95.70;;;;;;5116669;27;45437;-58
2023/06/24 03:13:10;;;;;;;4.20;1.95;;;23.60;95.70;;;;;;5120243;27;45303;-57
2023/06/24 03:15:36;;;;;;;2.25;1.90;;;23.60;95.70;;;;;;5125170;27;45228;-58
2023/06/24 03:18:04;;;;;;;2.30;1.80;;;23.60;95.70;;;;;;5124791;27;45501;-57
2023/06/24 03:20:37;;;;;;;2.00;1.75;;;23.60;95.70;;;;;;5124925;27;45481;-57
2023/06/24 03:23:05;;;;;;;2.28;1.67;;;23.60;95.70;;;;;;5126326;27;45386;-57
2023/06/24 03:25:32;;;;;;;3.33;1.80;;;23.60;95.80;;;;;;5125287;27;46993;-57
2023/06/24 03:28:00;;;;;;;3.15;1.85;;;23.50;95.80;;;;;;5113337;27;45661;-58
2023/06/24 03:30:28;;;;;;;3.40;1.85;;;23.60;95.80;;;;;;5114296;27;45402;-58
2023/06/24 03:32:55;;;;;;;1.98;1.70;;;23.50;95.80;;;;;;5121616;27;45703;-58
2023/06/24 03:35:22;;;;;;;2.05;1.50;;;23.60;95.80;;;;;;5115180;27;47056;-57
2023/06/24 03:37:49;;;;;;;2.38;1.77;;;23.50;95.80;;;;;;5122851;27;45398;-58
2023/06/24 03:40:15;;;;;;;2.10;1.70;;;23.50;95.80;;;;;;5112461;27;45316;-57
2023/06/24 03:42:42;;;;;;;4.03;1.90;;;23.50;95.80;;;;;;5107435;27;45642;-58
2023/06/24 03:45:09;;;;;;;2.65;1.95;;;23.50;95.80;;;;;;5112811;27;45612;-58
2023/06/24 03:47:38;;;;;;;3.83;2.00;;;23.50;95.80;;;;;;5118095;27;45363;-58
2023/06/24 03:50:06;;;;;;;2.08;1.50;;;23.50;95.80;;;;;;5113846;27;45337;-57
2023/06/24 03:52:34;;;;;;;2.40;2.00;;;23.50;95.80;;;;;;5118596;27;45486;-57
2023/06/24 03:55:01;;;;;;;2.65;1.60;;;23.50;95.80;;;;;;5117382;27;46426;-57
2023/06/24 03:57:28;;;;;;;2.25;1.73;;;23.50;95.80;;;;;;5114741;27;45458;-58
2023/06/24 03:59:55;;;;;;;1.88;1.70;;;23.50;95.80;;;;;;5112620;27;45331;-57
2023/06/24 04:02:22;;;;;;;2.03;1.83;;;23.50;95.80;;;;;;5123883;27;45669;-57
2023/06/24 04:04:51;;;;;;;4.75;1.98;;;23.50;95.80;;;;;;5119047;27;46644;-58
2023/06/24 04:07:26;;;;;;;2.50;1.85;;;23.50;95.80;;;;;;5119294;27;45418;-58
2023/06/24 04:09:54;;;;;;;2.33;1.90;;;23.50;95.80;;;;;;5123255;27;45504;-58
2023/06/24 04:12:21;;;;;;;3.00;1.75;;;23.50;95.70;;;;;;5122830;27;45562;-57
2023/06/24 04:14:48;;;;;;;3.13;1.92;;;23.50;95.70;;;;;;5120929;27;45241;-58
2023/06/24 04:17:15;;;;;;;2.67;2.08;;;23.60;95.70;;;;;;5123766;27;45264;-58
2023/06/24 04:19:41;;;;;;;2.50;2.22;;;23.60;95.70;;;;;;5122951;27;45460;-58
2023/06/24 04:22:09;;;;;;;3.95;2.28;;;23.50;95.60;;;;;;5124653;27;45330;-57
2023/06/24 04:24:36;;;;;;;3.22;2.00;;;23.50;95.60;;;;;;5124251;27;47529;-57
2023/06/24 04:27:03;;;;;;;2.95;1.92;;;23.50;95.60;;;;;;5125095;27;45441;-58
2023/06/24 04:29:30;;;;;;;2.88;2.20;;;23.60;95.60;;;;;;5122866;27;45322;-57
2023/06/24 04:31:57;;;;;;;2.97;1.80;;;23.50;95.60;;;;;;5120495;27;45467;-57
2023/06/24 04:34:24;;;;;;;2.42;1.73;;;23.50;95.60;;;;;;5123795;27;47514;-58
2023/06/24 04:36:50;;;;;;;3.25;2.10;;;23.60;95.70;;;;;;5124946;27;45343;-58
2023/06/24 04:39:18;;;;;;;2.50;1.75;;;23.50;95.70;;;;;;5122713;27;45216;-58
2023/06/24 04:41:46;;;;;;;2.28;2.08;;;23.50;95.70;;;;;;5121667;27;45348;-58
2023/06/24 04:44:12;;;;;;;2.95;2.17;;;23.50;95.70;;;;;;5124365;27;46485;-58
2023/06/24 04:46:40;;;;;;;2.50;1.85;;;23.50;95.70;;;;;;5123886;27;45330;-58
2023/06/24 04:49:07;;;;;;;2.30;2.10;;;23.50;95.70;;;;;;5124076;27;45364;-58
2023/06/24 04:51:34;;;;;;;3.95;2.00;;;23.50;95.70;;;;;;5124484;27;45315;-57
2023/06/24 04:54:01;;;;;;;2.95;2.20;;;23.50;95.70;;;;;;5123924;27;47424;-57
2023/06/24 04:56:29;;;;;;;3.13;2.22;;;23.50;95.70;;;;;;5124445;27;45614;-58
2023/06/24 04:58:56;;;;;;;3.28;2.17;;;23.50;95.70;;;;;;5123694;27;45412;-58
2023/06/24 05:01:23;;;;;;;2.60;1.90;;;23.50;95.70;;;;;;5124794;27;45552;-58
2023/06/24 05:03:50;;;;;;;2.10;1.77;;;23.50;95.70;;;;;;5123242;27;46421;-58
2023/06/24 05:06:16;;;;;;;3.75;2.10;;;23.50;95.70;;;;;;5119620;27;45310;-58
2023/06/24 05:08:43;;;;;;;2.78;1.90;;;23.50;95.70;;;;;;5120863;27;45390;-57
2023/06/24 05:11:10;;;;;;;4.43;2.10;;;23.50;95.70;;;;;;5121516;27;45369;-57
2023/06/24 05:13:38;;;;;;;2.47;1.92;;;23.50;96.10;;;;;;5116064;27;46082;-57
2023/06/24 05:16:05;;;;;;;2.10;1.80;;;23.50;95.70;;;;;;5122900;27;45419;-57
2023/06/24 05:18:32;;;;;;;2.97;2.20;;;23.50;95.70;;;;;;5123904;27;45340;-57
2023/06/24 05:20:59;;;;;;;2.85;1.90;;;23.50;95.70;;;;;;5124351;27;45583;-58
2023/06/24 05:23:26;;;;;;;2.42;1.90;;;23.50;95.70;;;;;;5123491;27;46318;-58
2023/06/24 05:25:53;;;;;;;1.90;1.70;;;23.50;95.70;;;;;;5121050;27;45707;-57
2023/06/24 05:28:19;;;;;;;2.70;2.00;;;23.60;95.80;;;;;;5120534;27;45320;-57
2023/06/24 05:30:48;;;;;;;2.75;2.15;;;23.60;95.80;;;;;;5124204;27;45587;-57
2023/06/24 05:33:14;;;;;;;1.80;1.70;;;23.50;95.70;;;;;;5122595;27;45514;-57
2023/06/24 05:35:43;;;;;;;2.58;2.00;;;23.50;95.70;;;;;;5122861;27;45322;-57
2023/06/24 05:38:10;;;;;;;2.60;2.38;;;23.50;95.80;;;;;;5123097;27;45375;-57
2023/06/24 05:40:37;;;;;;;3.35;2.03;;;23.60;95.80;;;;;;5116917;27;45479;-57
2023/06/24 05:43:04;;;;;;;3.30;2.05;;;23.60;95.80;;;;;;5123775;27;47140;-57
2023/06/24 05:45:30;;;;;;;3.35;2.35;;;23.50;95.80;;;;;;5123084;27;45291;-57
2023/06/24 05:47:58;;;;;;;2.65;2.00;;;23.60;95.80;;;;;;5124189;27;45437;-57
2023/06/24 05:50:25;;;;;;;3.20;2.20;;;23.60;95.80;;;;;;5122827;27;45651;-58
2023/06/24 05:52:52;;;;;;;1.75;1.65;;;23.50;95.80;;;;;;5123234;27;46285;-57
2023/06/24 05:55:19;;;;;;;2.60;1.95;;;23.50;95.80;;;;;;5123498;27;45329;-58
2023/06/24 05:57:45;;;;;;;2.10;1.90;;;23.50;95.80;;;;;;5122705;27;45346;-57
2023/06/24 06:00:13;;;;;;;3.05;2.08;;;23.50;95.80;;;;;;5122647;27;45547;-57
2023/06/24 06:02:39;;;;;;;3.67;2.20;;;23.50;95.80;;;;;;5123410;27;47079;-58
2023/06/24 06:05:08;;;;;;;4.00;2.05;;;23.50;95.80;;;;;;5123586;27;45283;-57
2023/06/24 06:07:38;;;;;;;3.13;1.73;;;23.50;95.80;;;;;;5121551;27;45330;-58
2023/06/24 06:10:05;;;;;;;2.83;2.25;;;23.50;95.80;;;;;;5118503;27;45549;-57
2023/06/24 06:12:32;;;;;;;2.60;1.75;;;23.50;95.80;;;;;;5121780;27;46601;-57
2023/06/24 06:14:58;;;;;;;1.95;1.75;;;23.50;95.70;;;;;;5117761;27;45383;-57
2023/06/24 06:17:25;;;;;;;3.20;2.10;;;23.50;95.70;;;;;;5122543;27;45498;-58
2023/06/24 06:19:52;;;;;;;2.65;2.10;;;23.50;95.60;;;;;;5109296;27;45420;-58
2023/06/24 06:22:20;;;;;;;2.03;1.80;;;23.50;95.60;;;;;;5102477;27;46594;-57
2023/06/24 06:24:47;;;;;;;2.58;1.90;;;23.50;95.50;;;;;;5116956;27;45430;-57
2023/06/24 06:27:14;;;;;;;2.65;1.92;;;23.50;95.60;;;;;;5114454;27;45316;-57
2023/06/24 06:29:41;;;;;;;2.10;1.80;;;23.50;95.50;;;;;;5112800;27;45460;-58
2023/06/24 06:32:09;;;;;;;2.50;1.98;;;23.50;95.40;;;;;;5113689;27;45583;-58
2023/06/24 06:34:36;;;;;;;2.20;1.83;;;23.60;95.30;;;;;;5120567;27;45386;-57
2023/06/24 06:37:03;;;;;;;2.72;2.00;;;23.50;95.30;;;;;;5122900;27;45532;-58
2023/06/24 06:39:31;;;;;;;2.67;2.03;;;23.50;95.30;;;;;;5120506;27;45411;-58
2023/06/24 06:41:58;;;;;;;2.90;1.90;;;23.60;95.30;;;;;;5118084;27;47517;-58
2023/06/24 06:44:25;;;;;;;2.75;1.77;;;23.50;95.30;;;;;;5120090;27;45565;-58
2023/06/24 06:46:51;;;;;;;2.25;1.77;;;23.60;95.30;;;;;;5120703;27;45431;-57
2023/06/24 06:49:18;;;;;;;3.53;2.05;;;23.50;95.30;;;;;;5126234;27;45341;-57
2023/06/24 06:51:45;;;;;;;2.25;1.85;;;23.60;95.30;;;;;;5122205;27;48150;-58
2023/06/24 06:54:12;;;;;;;2.30;1.67;;;23.60;95.40;;;;;;5121593;27;45467;-58
2023/06/24 06:56:40;;;;;;;2.92;2.03;;;23.60;95.40;;;;;;5119585;27;45518;-58
2023/06/24 06:59:07;;;;;;;2.55;1.98;;;23.60;95.30;;;;;;5110741;27;45749;-58
2023/06/24 07:01:34;;;;;;;4.07;1.90;;;23.60;95.30;;;;;;5113931;27;46022;-57
2023/06/24 07:04:00;;;;;;;2.33;1.83;;;23.50;95.30;;;;;;5117996;27;45386;-58
2023/06/24 07:06:27;;;;;;;3.03;1.90;;;23.60;95.30;;;;;;5116879;27;45605;-57
2023/06/24 07:08:54;;;;;;;3.60;1.90;;;23.50;95.30;;;;;;5115343;27;45814;-57
2023/06/24 07:11:21;;;;;;;3.78;1.90;;;23.60;95.30;;;;;;5118679;27;48526;-58
2023/06/24 07:13:50;;;;;;;2.38;1.85;;;23.50;95.30;;;;;;5118418;27;45336;-58
2023/06/24 07:16:17;;;;;;;2.55;1.70;;;23.50;95.30;;;;;;5115780;27;45548;-58
2023/06/24 07:18:44;;;;;;;2.03;1.70;;;23.60;95.30;;;;;;5118257;27;45329;-57
2023/06/24 07:21:11;;;;;;;3.03;1.70;;;23.60;95.30;;;;;;5122986;27;45471;-58
2023/06/24 07:23:37;;;;;;;2.40;1.80;;;23.60;95.30;;;;;;5111847;27;45451;-57
2023/06/24 07:26:04;;;;;;;2.38;1.70;;;23.60;95.40;;;;;;5125250;27;45267;-57
2023/06/24 07:28:31;;;;;;;1.70;1.60;;;23.60;95.40;;;;;;5125537;27;45355;-57
2023/06/24 07:30:59;;;;;;;2.50;1.70;;;23.60;95.30;;;;;;5126136;27;46411;-58
2023/06/24 07:33:26;;;;;;;2.60;1.58;;;23.60;95.30;;;;;;5120883;27;45268;-57
2023/06/24 07:35:53;;;;;;;1.83;1.50;;;23.60;95.30;;;;;;5115633;27;45367;-58
2023/06/24 07:38:19;;;;;;;2.97;1.70;;;23.60;95.20;;;;;;5119635;27;45469;-58
2023/06/24 07:40:46;;;;;;;2.30;2.00;;;23.60;95.20;;;;;;5122740;27;48074;-58
2023/06/24 07:43:13;;;;;;;1.90;1.63;;;23.60;95.10;;;;;;5117849;27;45481;-58
2023/06/24 07:45:40;;;;;;;2.00;1.60;;;23.60;95.10;;;;;;5118907;27;45339;-58
2023/06/24 07:48:08;;;;;;;2.95;1.90;;;23.60;95.10;;;;;;5116482;27;45364;-58
2023/06/24 07:50:35;;;;;;;2.25;1.52;;;23.60;95.10;;;;;;5122241;27;46323;-57
2023/06/24 07:53:03;;;;;;;2.05;1.70;;;23.60;95.20;;;;;;5118032;27;45392;-57
2023/06/24 07:55:29;;;;;;;2.25;2.00;;;23.60;95.30;;;;;;5115992;27;45362;-57
2023/06/24 07:57:58;;;;;;;3.63;1.58;;;23.60;95.30;;;;;;5112290;27;45397;-58
2023/06/24 08:00:25;;;;;;;2.45;1.92;;;23.70;95.30;;;;;;5112259;27;48445;-57
2023/06/24 08:02:52;;;;;;;2.80;1.60;;;23.60;95.30;;;;;;5121983;27;45502;-57
2023/06/24 08:05:20;;;;;;;3.25;2.15;;;23.60;95.30;;;;;;5117611;27;45413;-57
2023/06/24 08:07:47;;;;;;;3.42;2.05;;;23.70;95.30;;;;;;5119440;27;45455;-58
2023/06/24 08:10:14;;;;;;;2.00;1.80;;;23.70;95.20;;;;;;5118132;27;45279;-58
2023/06/24 08:12:40;;;;;;;2.63;1.85;;;23.60;95.30;;;;;;5120931;27;45388;-58
2023/06/24 08:15:08;;;;;;;3.53;2.00;;;23.70;95.40;;;;;;5114498;27;45248;-58
2023/06/24 08:17:35;;;;;;;2.40;1.70;;;23.70;95.20;;;;;;5121908;27;45272;-58
2023/06/24 08:20:02;;;;;;;3.25;1.77;;;23.70;95.20;;;;;;5124278;27;48048;-58
2023/06/24 08:22:31;;;;;;;2.72;2.03;;;23.70;95.10;;;;;;5123417;27;46278;-58
2023/06/24 08:24:59;;;;;;;2.28;1.80;;;23.70;95.00;;;;;;5115469;27;45605;-58
2023/06/24 08:27:25;;;;;;;2.83;2.10;;;23.70;95.00;;;;;;5116709;27;45359;-58
2023/06/24 08:29:52;;;;;;;2.00;1.50;;;23.70;95.10;;;;;;5115710;27;46575;-59
2023/06/24 08:32:19;;;;;;;5.40;2.10;;;23.70;95.10;;;;;;5120231;27;45372;-59
2023/06/24 08:34:46;;;;;;;4.45;1.98;;;23.70;95.40;;;;;;5123553;27;45442;-58
2023/06/24 08:37:13;;;;;;;2.92;1.65;;;23.70;95.40;;;;;;5125148;27;45413;-58
2023/06/24 08:39:41;;;;;;;1.98;1.77;;;23.70;95.20;;;;;;5114562;27;46606;-58
2023/06/24 08:42:08;;;;;;;3.13;2.38;;;23.70;95.20;;;;;;5115092;27;45599;-58
2023/06/24 08:44:35;;;;;;;4.22;2.10;;;23.70;95.20;;;;;;5115011;27;45303;-58
2023/06/24 08:47:02;;;;;;;3.42;2.35;;;23.70;95.20;;;;;;5117101;27;45415;-58
2023/06/24 08:49:31;;;;;;;3.45;2.40;;;23.70;95.20;;;;;;5124202;27;45498;-58
2023/06/24 08:52:03;;;;;;;2.83;2.08;;;23.70;95.20;;;;;;5116292;27;45287;-58
2023/06/24 08:54:31;;;;;;;3.00;2.33;;;23.70;95.20;;;;;;5123158;27;45452;-58
2023/06/24 08:57:01;;;;;;;2.72;1.88;;;23.70;95.20;;;;;;5123687;27;45293;-58
2023/06/24 08:59:28;;;;;;;2.83;1.98;;;23.70;95.40;;;;;;5114103;27;46502;-58
2023/06/24 09:01:55;;;;;;;1.75;1.60;;;23.70;95.40;;;;;;5118809;27;45501;-58
2023/06/24 09:04:21;;;;;;;2.33;1.80;;;23.70;95.40;;;;;;5116696;27;45405;-58
2023/06/24 09:06:48;;;;;;;2.53;1.95;;;23.70;95.40;;;;;;5124140;27;45461;-58
2023/06/24 09:09:20;;;;;;;2.92;2.17;;;23.70;95.60;;;;;;5116426;27;45403;-58
2023/06/24 09:11:52;;;;;;;2.88;1.80;;;23.70;95.40;;;;;;5113183;27;45681;-57
2023/06/24 09:14:21;;;;;;;3.03;2.17;;;23.70;95.40;;;;;;5110643;27;45504;-58
2023/06/24 09:16:58;;;;;;;2.47;2.13;;;23.70;95.40;;;;;;5120971;27;45372;-58
2023/06/24 09:19:28;;;;;;;2.28;2.05;;;23.70;95.40;;;;;;5114204;27;47109;-58
2023/06/24 09:21:58;;;;;;;2.58;1.90;;;23.70;95.40;;;;;;5114203;27;45509;-58
2023/06/24 09:24:28;;;;;;;2.60;1.73;;;23.70;95.40;;;;;;5124261;27;45536;-58
2023/06/24 09:26:58;;;;;;;4.00;2.00;;;23.70;95.40;;;;;;5113677;27;45370;-58
2023/06/24 09:29:28;;;;;;;1.92;1.70;;;23.70;95.40;;;;;;5117656;27;46546;-58
2023/06/24 09:31:55;;;;;;;2.33;1.60;;;23.70;95.40;;;;;;5117653;27;45367;-58
2023/06/24 09:34:23;;;;;;;3.22;1.90;;;23.70;95.40;;;;;;5121120;27;45576;-58
2023/06/24 09:36:53;;;;;;;2.20;1.88;;;23.70;95.40;;;;;;5104922;27;45252;-59
2023/06/24 09:39:22;;;;;;;2.10;1.80;;;23.70;95.40;;;;;;5116697;27;46165;-58
2023/06/24 09:41:51;;;;;;;1.73;1.48;;;23.70;95.40;;;;;;5117521;27;45255;-58
2023/06/24 09:44:19;;;;;;;2.75;1.85;;;23.70;95.40;;;;;;5105552;27;45586;-58
2023/06/24 09:46:48;;;;;;;2.40;1.80;;;23.70;95.40;;;;;;5116917;27;45712;-58
2023/06/24 09:49:15;;;;;;;1.90;1.70;;;23.70;95.40;;;;;;5119856;27;47540;-58
2023/06/24 09:51:45;;;;;;;1.75;1.50;;;23.70;95.40;;;;;;5119241;27;45300;-59
2023/06/24 09:54:13;;;;;;;1.88;1.58;;;23.70;95.30;;;;;;5116154;27;45502;-58
2023/06/24 09:56:43;;;;;;;2.45;1.80;;;23.70;95.30;;;;;;5122006;27;45585;-59
2023/06/24 09:59:11;;;;;;;2.10;1.63;;;23.70;95.30;;;;;;5119013;27;45477;-58
2023/06/24 10:01:40;;;;;;;2.72;1.95;;;23.70;95.80;;;;;;5116717;27;45548;-59
2023/06/24 10:04:10;;;;;;;2.45;1.63;;;23.70;95.40;;;;;;5118983;27;45471;-58
2023/06/24 10:06:36;;;;;;;2.78;1.90;;;23.70;95.40;;;;;;5115063;27;45301;-59
2023/06/24 10:09:03;;;;;;;2.30;1.50;;;23.70;95.40;;;;;;5112248;27;47536;-57
2023/06/24 10:11:31;;;;;;;1.90;1.70;;;23.70;95.40;;;;;;5117559;27;45414;-58
2023/06/24 10:13:58;;;;;;;2.25;1.80;;;23.70;95.40;;;;;;5119489;27;45284;-58
2023/06/24 10:16:25;;;;;;;2.53;1.83;;;23.70;95.40;;;;;;5123119;27;45527;-58
2023/06/24 10:18:51;;;;;;;2.00;1.60;;;23.70;95.40;;;;;;5121420;27;46644;-58
2023/06/24 10:21:20;;;;;;;2.72;1.95;;;23.70;95.30;;;;;;5121650;27;45457;-59
2023/06/24 10:23:54;;;;;;;2.75;1.77;;;23.70;95.30;;;;;;5119567;27;45444;-58
2023/06/24 10:26:28;;;;;;;2.47;1.50;;;23.70;95.20;;;;;;5114099;27;45436;-58
2023/06/24 10:29:14;;;;;;;2.10;1.70;;;23.70;95.30;;;;;;5118671;27;45449;-59
2023/06/24 10:31:54;;;;;;;2.45;1.50;;;23.70;95.40;;;;;;5118067;27;45372;-59
2023/06/24 10:34:39;;;;;;;2.42;1.83;;;23.70;95.40;;;;;;5118221;27;45445;-58
2023/06/24 10:37:11;;;;;;;1.90;1.50;;;23.70;95.40;;;;;;5116340;27;45415;-59
2023/06/24 10:39:45;;;;;;;2.47;1.52;;;23.70;95.40;;;;;;5121478;27;47431;-58
2023/06/24 10:42:33;;;;;;;2.72;1.90;;;23.70;95.40;;;;;;5124654;27;45385;-58
2023/06/24 10:45:01;;;;;;;2.67;1.80;;;23.70;95.40;;;;;;5118261;27;45507;-58
2023/06/24 10:47:30;;;;;;;4.28;1.98;;;23.80;95.40;;;;;;5122001;27;45408;-58
2023/06/24 10:49:56;;;;;;;2.55;1.90;;;23.70;95.40;;;;;;5123384;27;45448;-58
2023/06/24 10:52:25;;;;;;;3.53;1.77;;;23.70;95.40;;;;;;5124068;27;45426;-58
2023/06/24 10:54:53;;;;;;;1.90;1.50;;;23.70;95.40;;;;;;5122334;27;45339;-59
2023/06/24 10:57:24;;;;;;;1.80;1.63;;;23.70;95.40;;;;;;5116190;27;45371;-59
2023/06/24 10:59:52;;;;;;;1.80;1.50;;;23.70;95.40;;;;;;5118746;27;46354;-59
2023/06/24 11:02:20;;;;;;;2.85;1.70;;;23.70;95.40;;;;;;5119299;27;45614;-59
2023/06/24 11:04:48;;;;;;;2.90;1.83;;;23.70;95.40;;;;;;5126370;27;45619;-58
2023/06/24 11:07:15;;;;;;;2.72;1.50;;;23.70;95.40;;;;;;5125068;27;45377;-59
2023/06/24 11:09:49;;;;;;;1.67;1.55;;;23.70;95.40;;;;;;5119063;27;47252;-59
2023/06/24 11:12:16;;;;;;;2.65;1.45;;;23.70;95.30;;;;;;5118498;27;45404;-58
2023/06/24 11:14:43;;;;;;;1.77;1.40;;;23.70;95.10;;;;;;5121035;27;45371;-58
2023/06/24 11:17:10;;;;;;;1.98;1.50;;;23.70;95.10;;;;;;5121841;27;45437;-59
2023/06/24 11:19:39;;;;;;;4.15;1.63;;;23.70;95.00;;;;;;5116493;27;46304;-58
2023/06/24 11:22:07;;;;;;;1.30;1.20;;;23.70;95.00;;;;;;5118637;27;45416;-58
2023/06/24 11:24:34;;;;;;;2.55;1.67;;;23.70;95.00;;;;;;5122761;27;45256;-58
2023/06/24 11:27:04;;;;;;;2.53;1.23;;;23.70;94.60;;;;;;5120484;27;45404;-59
2023/06/24 11:29:33;;;;;;;2.00;1.40;;;23.70;94.40;;;;;;5118854;27;47049;-59
2023/06/24 11:32:00;;;;;;;1.70;1.30;;;23.70;94.20;;;;;;5118372;27;45383;-58
2023/06/24 11:34:27;;;;;;;1.73;1.48;;;23.70;94.20;;;;;;5120613;27;45335;-58
2023/06/24 11:36:54;;;;;;;1.63;1.10;;;23.70;94.10;;;;;;5121587;27;45513;-59
2023/06/24 11:39:24;;;;;;;2.22;1.40;;;23.70;94.40;;;;;;5117482;27;45493;-59
2023/06/24 11:41:52;;;;;;;1.33;1.23;;;23.70;93.90;;;;;;5117881;27;45501;-57
2023/06/24 11:44:21;;;;;;;2.10;1.42;;;23.70;93.80;;;;;;5120128;27;45415;-58
2023/06/24 11:46:48;;;;;;;1.85;1.40;;;23.70;93.70;;;;;;5118521;27;45296;-58
2023/06/24 11:49:15;;;;;;;1.85;1.23;;;23.70;93.70;;;;;;5120194;27;47542;-58
2023/06/24 11:51:48;;;;;;;2.45;1.30;;;23.70;93.70;;;;;;5120412;27;46327;-59
2023/06/24 11:54:17;;;;;;;1.50;1.27;;;23.70;94.20;;;;;;5120101;27;45220;-58
2023/06/24 11:56:44;;;;;;;1.50;1.10;;;23.70;93.70;;;;;;5122372;27;45325;-58
2023/06/24 11:59:20;;;;;;;1.48;1.10;;;23.70;93.70;;;;;;5121097;27;46583;-58
2023/06/24 12:01:55;;;;;;;1.65;1.30;;;23.70;93.70;;;;;;5123238;27;45428;-58
2023/06/24 12:04:22;;;;;;;2.92;1.50;;;23.70;93.80;;;;;;5122952;27;45392;-58
2023/06/24 12:06:49;;;;;;;3.03;1.20;;;23.70;93.50;;;;;;5122034;27;45586;-59
2023/06/24 12:09:16;;;;;;;2.08;1.40;;;23.70;93.50;;;;;;5117551;27;46286;-58
2023/06/24 12:11:43;;;;;;;1.60;1.30;;;23.70;93.40;;;;;;5121493;27;45555;-58
2023/06/24 12:14:10;;;;;;;1.60;1.40;;;23.70;93.40;;;;;;5116084;27;45441;-58
2023/06/24 12:16:39;;;;;;;1.92;1.20;;;23.70;93.40;;;;;;5122756;27;45338;-58
2023/06/24 12:19:06;;;;;;;2.15;1.33;;;23.70;93.30;;;;;;5124168;27;46304;-58
2023/06/24 12:21:32;;;;;;;1.15;1.00;;;23.70;93.30;;;;;;5116229;27;45285;-58
2023/06/24 12:23:59;;;;;;;1.98;1.30;;;23.70;93.20;;;;;;5117227;27;45352;-58
2023/06/24 12:26:26;;;;;;;1.55;1.17;;;23.70;93.20;;;;;;5122430;27;45353;-59
2023/06/24 12:28:55;;;;;;;1.58;1.25;;;23.70;93.70;;;;;;5123969;27;45496;-58
2023/06/24 12:31:22;;;;;;;1.23;1.13;;;23.70;93.20;;;;;;5117051;27;45482;-59
2023/06/24 12:33:51;;;;;;;1.20;1.10;;;23.70;93.20;;;;;;5115337;27;45308;-58
2023/06/24 12:36:18;;;;;;;2.10;1.20;;;23.70;93.20;;;;;;5124532;27;45469;-59
2023/06/24 12:38:44;;;;;;;0.80;0.80;;;23.70;93.20;;;;;;5116417;27;46180;-59
2023/06/24 12:41:11;;;;;;;1.40;1.20;;;23.70;93.20;;;;;;5124213;27;45300;-58
2023/06/24 12:43:38;;;;;;;1.40;1.20;;;23.70;92.80;;;;;;5123946;27;45570;-58
2023/06/24 12:46:05;;;;;;;1.73;1.42;;;23.70;92.70;;;;;;5123479;27;45417;-58
2023/06/24 12:48:31;;;;;;;1.63;1.27;;;23.70;92.40;;;;;;5123632;27;46746;-59
2023/06/24 12:50:59;;;;;;;1.65;1.30;;;23.70;92.30;;;;;;5119259;27;45444;-58
2023/06/24 12:53:26;;;;;;;1.20;1.10;;;23.70;92.40;;;;;;5122023;27;45390;-58